sensor_id;sensor_type;location;lat;lon;timestamp;pressure;altitude;pressure_sealevel;temperature;humidity
60852;BME280;48553;50.766;2.900;2022-09-09T00:02:18;99984.38;;;17.77;69.72
60852;BME280;48553;50.766;2.900;2022-09-09T00:05:35;99968.91;;;17.80;69.71
60852;BME280;48553;50.766;2.900;2022-09-09T00:12:04;99975.69;;;17.75;69.91
60852;BME280;48553;50.766;2.900;2022-09-09T00:15:21;99957.47;;;17.74;69.83
60852;BME280;48553;50.766;2.900;2022-09-09T00:24:54;99962.63;;;17.72;69.85
60852;BME280;48553;50.766;2.900;2022-09-09T00:27:55;99958.69;;;17.66;70.08
60852;BME280;48553;50.766;2.900;2022-09-09T00:30:59;99956.31;;;17.68;69.92
60852;BME280;48553;50.766;2.900;2022-09-09T00:34:18;99946.00;;;17.68;69.96
60852;BME280;48553;50.766;2.900;2022-09-09T00:37:22;99947.22;;;17.67;69.91
60852;BME280;48553;50.766;2.900;2022-09-09T00:40:33;99944.47;;;17.64;69.89
60852;BME280;48553;50.766;2.900;2022-09-09T00:43:39;99940.91;;;17.63;69.88
60852;BME280;48553;50.766;2.900;2022-09-09T00:50:43;99925.88;;;17.61;69.90
60852;BME280;48553;50.766;2.900;2022-09-09T00:57:18;99924.31;;;17.56;70.06
60852;BME280;48553;50.766;2.900;2022-09-09T01:00:42;99916.00;;;17.56;69.82
60852;BME280;48553;50.766;2.900;2022-09-09T01:03:56;99911.25;;;17.53;69.95
60852;BME280;48553;50.766;2.900;2022-09-09T01:07:19;99910.91;;;17.51;69.91
60852;BME280;48553;50.766;2.900;2022-09-09T01:13:33;99913.66;;;17.51;70.21
60852;BME280;48553;50.766;2.900;2022-09-09T01:16:34;99913.28;;;17.49;70.15
60852;BME280;48553;50.766;2.900;2022-09-09T01:23:05;99907.34;;;17.47;70.33
60852;BME280;48553;50.766;2.900;2022-09-09T01:26:23;99901.81;;;17.43;70.35
60852;BME280;48553;50.766;2.900;2022-09-09T01:29:25;99899.44;;;17.42;70.43
60852;BME280;48553;50.766;2.900;2022-09-09T01:32:44;99898.25;;;17.43;70.13
60852;BME280;48553;50.766;2.900;2022-09-09T01:36:03;99896.66;;;17.42;70.75
60852;BME280;48553;50.766;2.900;2022-09-09T01:39:04;99892.31;;;17.44;70.66
60852;BME280;48553;50.766;2.900;2022-09-09T01:42:08;99889.94;;;17.39;70.93
60852;BME280;48553;50.766;2.900;2022-09-09T01:45:09;99890.34;;;17.41;70.96
60852;BME280;48553;50.766;2.900;2022-09-09T01:48:09;99891.56;;;17.37;71.16
60852;BME280;48553;50.766;2.900;2022-09-09T01:51:10;99875.31;;;17.39;71.20
60852;BME280;48553;50.766;2.900;2022-09-09T01:54:10;99881.25;;;17.37;71.26
60852;BME280;48553;50.766;2.900;2022-09-09T01:57:22;99883.25;;;17.37;71.19
60852;BME280;48553;50.766;2.900;2022-09-09T02:00:25;99878.53;;;17.33;71.45
60852;BME280;48553;50.766;2.900;2022-09-09T02:03:28;99878.91;;;17.36;71.39
60852;BME280;48553;50.766;2.900;2022-09-09T02:06:36;99872.16;;;17.37;71.11
60852;BME280;48553;50.766;2.900;2022-09-09T02:09:40;99881.28;;;17.33;71.34
60852;BME280;48553;50.766;2.900;2022-09-09T02:12:49;99866.25;;;17.35;71.35
60852;BME280;48553;50.766;2.900;2022-09-09T02:19:29;99865.09;;;17.28;71.32
60852;BME280;48553;50.766;2.900;2022-09-09T02:22:32;99871.03;;;17.30;71.28
60852;BME280;48553;50.766;2.900;2022-09-09T02:25:35;99864.28;;;17.28;71.28
60852;BME280;48553;50.766;2.900;2022-09-09T02:28:37;99868.28;;;17.23;71.40
60852;BME280;48553;50.766;2.900;2022-09-09T02:31:41;99874.97;;;17.26;71.29
60852;BME280;48553;50.766;2.900;2022-09-09T02:34:45;99879.38;;;17.20;71.37
60852;BME280;48553;50.766;2.900;2022-09-09T02:37:48;99877.78;;;17.22;71.35
60852;BME280;48553;50.766;2.900;2022-09-09T02:40:50;99882.53;;;17.22;71.44
60852;BME280;48553;50.766;2.900;2022-09-09T02:43:50;99869.47;;;17.19;71.72
60852;BME280;48553;50.766;2.900;2022-09-09T02:50:16;99874.63;;;17.20;71.59
60852;BME280;48553;50.766;2.900;2022-09-09T02:53:19;99865.91;;;17.22;71.60
60852;BME280;48553;50.766;2.900;2022-09-09T02:56:23;99875.00;;;17.19;71.84
60852;BME280;48553;50.766;2.900;2022-09-09T02:59:26;99872.63;;;17.21;71.68
60852;BME280;48553;50.766;2.900;2022-09-09T03:02:27;99873.44;;;17.18;71.83
60852;BME280;48553;50.766;2.900;2022-09-09T03:05:27;99867.91;;;17.18;71.90
60852;BME280;48553;50.766;2.900;2022-09-09T03:08:28;99853.28;;;17.17;72.08
60852;BME280;48553;50.766;2.900;2022-09-09T03:11:28;99859.22;;;17.16;72.04
60852;BME280;48553;50.766;2.900;2022-09-09T03:14:29;99846.94;;;17.17;72.01
60852;BME280;48553;50.766;2.900;2022-09-09T03:17:30;99851.31;;;17.14;72.29
60852;BME280;48553;50.766;2.900;2022-09-09T03:20:30;99842.59;;;17.16;72.13
60852;BME280;48553;50.766;2.900;2022-09-09T03:23:31;99846.56;;;17.15;72.20
60852;BME280;48553;50.766;2.900;2022-09-09T03:26:32;99843.81;;;17.11;72.36
60852;BME280;48553;50.766;2.900;2022-09-09T03:29:32;99842.22;;;17.14;72.39
60852;BME280;48553;50.766;2.900;2022-09-09T03:32:33;99832.75;;;17.11;72.21
60852;BME280;48553;50.766;2.900;2022-09-09T03:35:33;99830.75;;;17.15;72.02
60852;BME280;48553;50.766;2.900;2022-09-09T03:38:34;99833.13;;;17.13;72.25
60852;BME280;48553;50.766;2.900;2022-09-09T03:41:34;99832.34;;;17.09;72.43
60852;BME280;48553;50.766;2.900;2022-09-09T03:44:35;99831.56;;;17.08;72.44
60852;BME280;48553;50.766;2.900;2022-09-09T03:47:35;99824.03;;;17.09;72.40
60852;BME280;48553;50.766;2.900;2022-09-09T03:50:36;99831.56;;;17.08;72.40
60852;BME280;48553;50.766;2.900;2022-09-09T03:53:36;99824.81;;;17.09;72.43
60852;BME280;48553;50.766;2.900;2022-09-09T03:56:38;99829.97;;;17.07;72.45
60852;BME280;48553;50.766;2.900;2022-09-09T03:59:39;99834.34;;;17.08;72.66
60852;BME280;48553;50.766;2.900;2022-09-09T04:02:39;99830.41;;;17.06;72.53
60852;BME280;48553;50.766;2.900;2022-09-09T04:05:39;99819.72;;;17.08;72.68
60852;BME280;48553;50.766;2.900;2022-09-09T04:08:42;99817.34;;;17.06;72.82
60852;BME280;48553;50.766;2.900;2022-09-09T04:11:42;99815.75;;;17.05;72.88
60852;BME280;48553;50.766;2.900;2022-09-09T04:14:43;99825.66;;;17.03;72.89
60852;BME280;48553;50.766;2.900;2022-09-09T04:17:43;99821.28;;;17.05;72.89
60852;BME280;48553;50.766;2.900;2022-09-09T04:20:46;99816.94;;;17.01;73.19
60852;BME280;48553;50.766;2.900;2022-09-09T04:23:47;99811.41;;;17.01;73.00
60852;BME280;48553;50.766;2.900;2022-09-09T04:26:47;99815.78;;;16.98;73.16
60852;BME280;48553;50.766;2.900;2022-09-09T04:29:47;99805.09;;;17.00;72.84
60852;BME280;48553;50.766;2.900;2022-09-09T04:32:48;99803.53;;;16.99;72.93
60852;BME280;48553;50.766;2.900;2022-09-09T04:35:49;99802.75;;;16.95;73.43
60852;BME280;48553;50.766;2.900;2022-09-09T04:38:50;99791.69;;;16.91;73.60
60852;BME280;48553;50.766;2.900;2022-09-09T04:41:50;99794.84;;;16.94;73.62
60852;BME280;48553;50.766;2.900;2022-09-09T04:44:51;99789.31;;;16.94;73.57
60852;BME280;48553;50.766;2.900;2022-09-09T04:47:52;99789.72;;;16.92;73.75
60852;BME280;48553;50.766;2.900;2022-09-09T04:51:00;99783.81;;;16.90;73.60
60852;BME280;48553;50.766;2.900;2022-09-09T04:54:01;99769.19;;;16.86;74.02
60852;BME280;48553;50.766;2.900;2022-09-09T04:57:02;99771.91;;;16.89;73.88
60852;BME280;48553;50.766;2.900;2022-09-09T05:00:03;99763.66;;;16.86;73.81
60852;BME280;48553;50.766;2.900;2022-09-09T05:03:05;99772.34;;;16.88;73.73
60852;BME280;48553;50.766;2.900;2022-09-09T05:06:11;99771.13;;;16.89;73.79
60852;BME280;48553;50.766;2.900;2022-09-09T05:09:11;99759.28;;;16.88;73.72
60852;BME280;48553;50.766;2.900;2022-09-09T05:12:12;99762.44;;;16.87;73.91
60852;BME280;48553;50.766;2.900;2022-09-09T05:15:12;99769.19;;;16.86;74.09
60852;BME280;48553;50.766;2.900;2022-09-09T05:18:13;99758.13;;;16.86;74.15
60852;BME280;48553;50.766;2.900;2022-09-09T05:21:15;99756.53;;;16.85;74.15
60852;BME280;48553;50.766;2.900;2022-09-09T05:24:16;99766.81;;;16.84;73.99
60852;BME280;48553;50.766;2.900;2022-09-09T05:27:18;99767.59;;;16.85;74.11
60852;BME280;48553;50.766;2.900;2022-09-09T05:30:19;99771.56;;;16.84;74.01
60852;BME280;48553;50.766;2.900;2022-09-09T05:33:20;99772.34;;;16.84;74.35
60852;BME280;48553;50.766;2.900;2022-09-09T05:36:22;99767.63;;;16.81;74.51
60852;BME280;48553;50.766;2.900;2022-09-09T05:39:22;99764.81;;;16.85;74.37
60852;BME280;48553;50.766;2.900;2022-09-09T05:42:23;99769.19;;;16.82;74.36
60852;BME280;48553;50.766;2.900;2022-09-09T05:45:24;99768.03;;;16.83;74.50
60852;BME280;48553;50.766;2.900;2022-09-09T05:48:24;99770.78;;;16.80;74.58
60852;BME280;48553;50.766;2.900;2022-09-09T05:51:26;99760.50;;;16.80;74.58
60852;BME280;48553;50.766;2.900;2022-09-09T05:54:28;99770.41;;;16.81;74.61
60852;BME280;48553;50.766;2.900;2022-09-09T05:57:28;99771.97;;;16.82;74.58
60852;BME280;48553;50.766;2.900;2022-09-09T06:00:29;99764.88;;;16.81;74.47
60852;BME280;48553;50.766;2.900;2022-09-09T06:03:32;99770.38;;;16.78;74.95
60852;BME280;48553;50.766;2.900;2022-09-09T06:06:35;99760.91;;;16.79;74.65
60852;BME280;48553;50.766;2.900;2022-09-09T06:09:36;99754.56;;;16.78;74.63
60852;BME280;48553;50.766;2.900;2022-09-09T06:12:37;99758.13;;;16.75;75.09
60852;BME280;48553;50.766;2.900;2022-09-09T06:15:37;99745.88;;;16.76;75.15
60852;BME280;48553;50.766;2.900;2022-09-09T06:18:38;99753.00;;;16.74;75.18
60852;BME280;48553;50.766;2.900;2022-09-09T06:21:39;99751.81;;;16.75;75.03
60852;BME280;48553;50.766;2.900;2022-09-09T06:24:40;99760.50;;;16.77;75.19
60852;BME280;48553;50.766;2.900;2022-09-09T06:27:40;99759.72;;;16.73;75.15
60852;BME280;48553;50.766;2.900;2022-09-09T06:30:42;99758.94;;;16.72;75.48
60852;BME280;48553;50.766;2.900;2022-09-09T06:33:42;99763.69;;;16.72;75.46
60852;BME280;48553;50.766;2.900;2022-09-09T06:36:43;99752.22;;;16.73;75.30
60852;BME280;48553;50.766;2.900;2022-09-09T06:39:45;99755.00;;;16.69;75.61
60852;BME280;48553;50.766;2.900;2022-09-09T06:42:46;99762.50;;;16.73;75.47
60852;BME280;48553;50.766;2.900;2022-09-09T06:45:57;99759.72;;;16.69;75.71
60852;BME280;48553;50.766;2.900;2022-09-09T06:48:57;99749.06;;;16.71;75.32
60852;BME280;48553;50.766;2.900;2022-09-09T06:51:59;99755.00;;;16.69;75.76
60852;BME280;48553;50.766;2.900;2022-09-09T06:55:00;99759.38;;;16.67;75.87
60852;BME280;48553;50.766;2.900;2022-09-09T06:58:00;99762.09;;;16.70;75.58
60852;BME280;48553;50.766;2.900;2022-09-09T07:01:05;99754.63;;;16.67;75.92
60852;BME280;48553;50.766;2.900;2022-09-09T07:04:07;99768.84;;;16.66;76.01
60852;BME280;48553;50.766;2.900;2022-09-09T07:07:09;99753.41;;;16.68;75.87
60852;BME280;48553;50.766;2.900;2022-09-09T07:10:12;99755.78;;;16.66;76.04
60852;BME280;48553;50.766;2.900;2022-09-09T07:13:13;99761.72;;;16.68;75.86
60852;BME280;48553;50.766;2.900;2022-09-09T07:16:17;99748.31;;;16.67;76.15
60852;BME280;48553;50.766;2.900;2022-09-09T07:19:18;99749.47;;;16.66;76.24
60852;BME280;48553;50.766;2.900;2022-09-09T07:22:19;99747.88;;;16.68;76.05
60852;BME280;48553;50.766;2.900;2022-09-09T07:25:20;99745.53;;;16.67;76.28
60852;BME280;48553;50.766;2.900;2022-09-09T07:28:21;99752.63;;;16.72;76.17
60852;BME280;48553;50.766;2.900;2022-09-09T07:31:28;99761.72;;;16.72;76.01
60852;BME280;48553;50.766;2.900;2022-09-09T07:34:30;99757.78;;;16.69;76.37
60852;BME280;48553;50.766;2.900;2022-09-09T07:37:31;99758.56;;;16.70;76.63
60852;BME280;48553;50.766;2.900;2022-09-09T07:40:31;99764.88;;;16.70;76.72
60852;BME280;48553;50.766;2.900;2022-09-09T07:43:31;99757.75;;;16.73;76.61
60852;BME280;48553;50.766;2.900;2022-09-09T07:46:34;99761.72;;;16.72;77.00
60852;BME280;48553;50.766;2.900;2022-09-09T07:49:34;99769.97;;;16.76;76.66
60852;BME280;48553;50.766;2.900;2022-09-09T07:52:35;99779.50;;;16.71;76.94
60852;BME280;48553;50.766;2.900;2022-09-09T07:55:36;99778.31;;;16.72;77.24
60852;BME280;48553;50.766;2.900;2022-09-09T07:58:38;99785.03;;;16.75;76.86
60852;BME280;48553;50.766;2.900;2022-09-09T08:01:42;99785.03;;;16.78;76.80
60852;BME280;48553;50.766;2.900;2022-09-09T08:04:43;99792.53;;;16.81;77.18
60852;BME280;48553;50.766;2.900;2022-09-09T08:07:43;99800.44;;;16.83;77.16
60852;BME280;48553;50.766;2.900;2022-09-09T08:10:44;99811.47;;;16.86;77.08
60852;BME280;48553;50.766;2.900;2022-09-09T08:13:45;99817.41;;;16.88;77.09
60852;BME280;48553;50.766;2.900;2022-09-09T08:16:47;99822.13;;;16.91;77.03
60852;BME280;48553;50.766;2.900;2022-09-09T08:19:48;99811.47;;;16.90;77.15
60852;BME280;48553;50.766;2.900;2022-09-09T08:22:48;99823.34;;;16.94;77.11
60852;BME280;48553;50.766;2.900;2022-09-09T08:25:50;99826.47;;;16.96;77.01
60852;BME280;48553;50.766;2.900;2022-09-09T08:28:52;99830.44;;;16.99;77.29
60852;BME280;48553;50.766;2.900;2022-09-09T08:31:55;99832.78;;;17.00;77.17
60852;BME280;48553;50.766;2.900;2022-09-09T08:34:57;99830.41;;;17.02;77.15
60852;BME280;48553;50.766;2.900;2022-09-09T08:37:57;99840.69;;;17.02;77.54
60852;BME280;48553;50.766;2.900;2022-09-09T08:41:07;99843.06;;;17.03;77.86
60852;BME280;48553;50.766;2.900;2022-09-09T08:50:40;99851.72;;;17.05;77.48
60852;BME280;48553;50.766;2.900;2022-09-09T08:53:44;99860.44;;;17.07;77.26
60852;BME280;48553;50.766;2.900;2022-09-09T08:56:47;99863.19;;;17.07;77.51
60852;BME280;48553;50.766;2.900;2022-09-09T08:59:50;99867.56;;;17.08;77.49
60852;BME280;48553;50.766;2.900;2022-09-09T09:03:07;99868.72;;;17.07;77.20
60852;BME280;48553;50.766;2.900;2022-09-09T09:13:20;99885.72;;;17.09;77.53
60852;BME280;48553;50.766;2.900;2022-09-09T09:16:34;99893.66;;;17.11;77.32
60852;BME280;48553;50.766;2.900;2022-09-09T09:19:39;99893.66;;;17.11;77.25
60852;BME280;48553;50.766;2.900;2022-09-09T09:22:44;99891.66;;;17.11;77.54
60852;BME280;48553;50.766;2.900;2022-09-09T09:25:47;99889.69;;;17.12;77.64
60852;BME280;48553;50.766;2.900;2022-09-09T09:28:50;99892.44;;;17.12;77.68
60852;BME280;48553;50.766;2.900;2022-09-09T09:31:56;99903.91;;;17.14;77.52
60852;BME280;48553;50.766;2.900;2022-09-09T09:34:59;99906.28;;;17.16;77.31
60852;BME280;48553;50.766;2.900;2022-09-09T09:38:01;99907.47;;;17.18;77.32
60852;BME280;48553;50.766;2.900;2022-09-09T09:41:04;99911.41;;;17.21;77.07
60852;BME280;48553;50.766;2.900;2022-09-09T09:44:05;99915.78;;;17.18;77.89
60852;BME280;48553;50.766;2.900;2022-09-09T09:47:10;99913.00;;;17.22;77.29
60852;BME280;48553;50.766;2.900;2022-09-09T09:50:19;99917.72;;;17.25;77.46
60852;BME280;48553;50.766;2.900;2022-09-09T09:53:30;99922.09;;;17.22;77.16
60852;BME280;48553;50.766;2.900;2022-09-09T09:56:32;99914.94;;;17.25;77.50
60852;BME280;48553;50.766;2.900;2022-09-09T09:59:34;99922.44;;;17.28;77.51
60852;BME280;48553;50.766;2.900;2022-09-09T10:02:40;99926.38;;;17.34;77.03
60852;BME280;48553;50.766;2.900;2022-09-09T10:05:45;99938.59;;;17.44;76.94
60852;BME280;48553;50.766;2.900;2022-09-09T10:08:46;99930.28;;;17.47;76.63
60852;BME280;48553;50.766;2.900;2022-09-09T10:19:04;99944.06;;;17.62;77.30
60852;BME280;48553;50.766;2.900;2022-09-09T10:22:26;99952.78;;;17.64;77.08
60852;BME280;48553;50.766;2.900;2022-09-09T10:26:08;99950.72;;;17.75;77.22
60852;BME280;48553;50.766;2.900;2022-09-09T10:32:48;99955.88;;;17.73;76.81
60852;BME280;48553;50.766;2.900;2022-09-09T10:39:33;99957.84;;;17.83;76.82
60852;BME280;48553;50.766;2.900;2022-09-09T10:42:35;99969.69;;;17.94;76.72
60852;BME280;48553;50.766;2.900;2022-09-09T10:45:58;99971.56;;;18.05;76.15
60852;BME280;48553;50.766;2.900;2022-09-09T10:55:55;99974.41;;;17.98;76.85
60852;BME280;48553;50.766;2.900;2022-09-09T10:59:20;99972.06;;;17.92;77.25
60852;BME280;48553;50.766;2.900;2022-09-09T11:02:29;99978.41;;;17.89;76.78
60852;BME280;48553;50.766;2.900;2022-09-09T11:05:43;99986.72;;;17.89;77.24
60852;BME280;48553;50.766;2.900;2022-09-09T11:08:48;99986.28;;;17.98;76.49
60852;BME280;48553;50.766;2.900;2022-09-09T11:11:54;99989.38;;;18.07;76.59
60852;BME280;48553;50.766;2.900;2022-09-09T11:18:23;99986.25;;;18.02;76.61
60852;BME280;48553;50.766;2.900;2022-09-09T11:21:34;99986.25;;;18.02;76.80
60852;BME280;48553;50.766;2.900;2022-09-09T11:24:50;99986.66;;;18.00;77.00
60852;BME280;48553;50.766;2.900;2022-09-09T11:34:53;99995.75;;;18.01;76.55
60852;BME280;48553;50.766;2.900;2022-09-09T11:38:06;99990.66;;;17.95;77.09
60852;BME280;48553;50.766;2.900;2022-09-09T11:41:09;99996.97;;;17.96;77.15
60852;BME280;48553;50.766;2.900;2022-09-09T11:44:12;99989.88;;;17.95;77.21
60852;BME280;48553;50.766;2.900;2022-09-09T11:47:28;99993.03;;;17.93;77.29
60852;BME280;48553;50.766;2.900;2022-09-09T11:50:36;99989.47;;;17.93;77.57
60852;BME280;48553;50.766;2.900;2022-09-09T11:57:02;100002.13;;;17.98;77.33
60852;BME280;48553;50.766;2.900;2022-09-09T12:00:03;99998.16;;;17.99;77.35
60852;BME280;48553;50.766;2.900;2022-09-09T12:03:05;100004.91;;;17.98;77.84
60852;BME280;48553;50.766;2.900;2022-09-09T12:10:23;100004.88;;;18.01;77.71
60852;BME280;48553;50.766;2.900;2022-09-09T12:13:23;100002.50;;;18.03;77.34
60852;BME280;48553;50.766;2.900;2022-09-09T12:16:35;100000.09;;;18.05;77.66
60852;BME280;48553;50.766;2.900;2022-09-09T12:19:38;100007.63;;;18.08;77.32
60852;BME280;48553;50.766;2.900;2022-09-09T12:26:12;100008.38;;;18.12;77.59
60852;BME280;48553;50.766;2.900;2022-09-09T12:32:38;100009.38;;;18.40;79.61
60852;BME280;48553;50.766;2.900;2022-09-09T12:35:41;100016.03;;;18.53;79.85
60852;BME280;48553;50.766;2.900;2022-09-09T12:38:44;100022.31;;;18.61;80.18
60852;BME280;48553;50.766;2.900;2022-09-09T12:41:52;100015.94;;;18.64;80.38
60852;BME280;48553;50.766;2.900;2022-09-09T12:45:02;100023.00;;;18.72;79.97
60852;BME280;48553;50.766;2.900;2022-09-09T12:51:17;100008.66;;;18.85;79.35
60852;BME280;48553;50.766;2.900;2022-09-09T12:54:19;100024.41;;;18.98;78.91
60852;BME280;48553;50.766;2.900;2022-09-09T12:57:23;100018.72;;;19.09;78.35
60852;BME280;48553;50.766;2.900;2022-09-09T13:00:27;100016.31;;;19.15;77.48
60852;BME280;48553;50.766;2.900;2022-09-09T13:03:28;100019.16;;;19.08;77.35
60852;BME280;48553;50.766;2.900;2022-09-09T13:06:29;100022.72;;;19.08;76.46
60852;BME280;48553;50.766;2.900;2022-09-09T13:09:30;100023.47;;;19.12;75.93
60852;BME280;48553;50.766;2.900;2022-09-09T13:12:32;100018.22;;;19.22;75.32
60852;BME280;48553;50.766;2.900;2022-09-09T13:15:32;100016.16;;;19.29;75.65
60852;BME280;48553;50.766;2.900;2022-09-09T13:18:39;100020.88;;;19.32;74.19
60852;BME280;48553;50.766;2.900;2022-09-09T13:21:40;100016.81;;;19.40;73.03
60852;BME280;48553;50.766;2.900;2022-09-09T13:24:41;100025.41;;;19.53;72.56
60852;BME280;48553;50.766;2.900;2022-09-09T13:27:52;100029.19;;;19.74;71.86
60852;BME280;48553;50.766;2.900;2022-09-09T13:30:57;100025.78;;;19.90;71.53
60852;BME280;48553;50.766;2.900;2022-09-09T13:34:11;100027.44;;;20.14;70.34
60852;BME280;48553;50.766;2.900;2022-09-09T13:40:31;100021.13;;;19.83;71.11
60852;BME280;48553;50.766;2.900;2022-09-09T13:43:36;100022.09;;;19.69;70.97
60852;BME280;48553;50.766;2.900;2022-09-09T13:49:41;100026.88;;;19.65;70.91
60852;BME280;48553;50.766;2.900;2022-09-09T13:52:42;100024.13;;;19.61;70.90
60852;BME280;48553;50.766;2.900;2022-09-09T13:55:42;100027.38;;;19.53;70.84
60852;BME280;48553;50.766;2.900;2022-09-09T13:58:43;100030.63;;;19.48;70.53
60852;BME280;48553;50.766;2.900;2022-09-09T14:01:43;100029.09;;;19.43;70.57
60852;BME280;48553;50.766;2.900;2022-09-09T14:04:44;100037.91;;;19.34;70.56
60852;BME280;48553;50.766;2.900;2022-09-09T14:07:45;100042.38;;;19.28;70.90
60852;BME280;48553;50.766;2.900;2022-09-09T14:10:45;100047.25;;;19.17;71.83
60852;BME280;48553;50.766;2.900;2022-09-09T14:13:46;100044.50;;;19.10;72.28
60852;BME280;48553;50.766;2.900;2022-09-09T14:16:46;100042.63;;;19.03;72.92
60852;BME280;48553;50.766;2.900;2022-09-09T14:19:47;100057.31;;;19.00;72.93
60852;BME280;48553;50.766;2.900;2022-09-09T14:22:48;100044.63;;;18.99;73.21
60852;BME280;48553;50.766;2.900;2022-09-09T14:25:48;100046.97;;;19.01;73.11
60852;BME280;48553;50.766;2.900;2022-09-09T14:28:49;100049.75;;;19.04;73.06
60852;BME280;48553;50.766;2.900;2022-09-09T14:31:50;100040.56;;;19.11;73.55
60852;BME280;48553;50.766;2.900;2022-09-09T14:34:50;100056.34;;;19.17;74.96
60852;BME280;48553;50.766;2.900;2022-09-09T14:37:51;100049.94;;;19.24;74.87
60852;BME280;48553;50.766;2.900;2022-09-09T14:40:51;100055.06;;;19.29;74.28
60852;BME280;48553;50.766;2.900;2022-09-09T14:43:52;100058.22;;;19.31;73.50
60852;BME280;48553;50.766;2.900;2022-09-09T14:46:54;100062.59;;;19.29;72.77
60852;BME280;48553;50.766;2.900;2022-09-09T14:49:54;100064.22;;;19.26;72.90
60852;BME280;48553;50.766;2.900;2022-09-09T14:52:55;100061.47;;;19.23;72.06
60852;BME280;48553;50.766;2.900;2022-09-09T14:56:06;100065.78;;;19.27;71.79
60852;BME280;48553;50.766;2.900;2022-09-09T14:59:07;100058.59;;;19.30;71.10
60852;BME280;48553;50.766;2.900;2022-09-09T15:02:08;100058.22;;;19.31;70.83
60852;BME280;48553;50.766;2.900;2022-09-09T15:05:09;100069.72;;;19.30;70.25
60852;BME280;48553;50.766;2.900;2022-09-09T15:08:10;100069.78;;;19.26;70.58
60852;BME280;48553;50.766;2.900;2022-09-09T15:11:12;100063.06;;;19.24;70.41
60852;BME280;48553;50.766;2.900;2022-09-09T15:14:12;100059.91;;;19.22;70.72
60852;BME280;48553;50.766;2.900;2022-09-09T15:17:13;100056.34;;;19.17;70.26
60852;BME280;48553;50.766;2.900;2022-09-09T15:20:13;100049.25;;;19.13;70.41
60852;BME280;48553;50.766;2.900;2022-09-09T15:23:15;100063.59;;;19.08;70.46
60852;BME280;48553;50.766;2.900;2022-09-09T15:26:17;100065.56;;;19.07;70.57
60852;BME280;48553;50.766;2.900;2022-09-09T15:29:17;100073.53;;;19.05;70.47
60852;BME280;48553;50.766;2.900;2022-09-09T15:32:19;100078.28;;;19.05;70.04
60852;BME280;48553;50.766;2.900;2022-09-09T15:35:19;100078.72;;;19.03;69.85
60852;BME280;48553;50.766;2.900;2022-09-09T15:38:20;100079.91;;;19.02;69.79
60852;BME280;48553;50.766;2.900;2022-09-09T15:41:22;100087.06;;;18.99;69.13
60852;BME280;48553;50.766;2.900;2022-09-09T15:44:22;100089.88;;;18.96;69.35
60852;BME280;48553;50.766;2.900;2022-09-09T15:47:25;100101.03;;;18.92;69.77
60852;BME280;48553;50.766;2.900;2022-09-09T15:50:26;100103.81;;;18.92;69.75
60852;BME280;48553;50.766;2.900;2022-09-09T15:53:26;100105.78;;;18.92;70.05
60852;BME280;48553;50.766;2.900;2022-09-09T15:56:28;100103.03;;;18.92;70.35
60852;BME280;48553;50.766;2.900;2022-09-09T15:59:31;100103.81;;;18.92;70.20
60852;BME280;48553;50.766;2.900;2022-09-09T16:02:32;100099.84;;;18.90;70.03
60852;BME280;48553;50.766;2.900;2022-09-09T16:05:33;100102.25;;;18.88;69.56
60852;BME280;48553;50.766;2.900;2022-09-09T16:08:34;100109.78;;;18.87;69.49
60852;BME280;48553;50.766;2.900;2022-09-09T16:11:37;100114.97;;;18.85;69.23
60852;BME280;48553;50.766;2.900;2022-09-09T16:14:38;100112.97;;;18.86;69.67
60852;BME280;48553;50.766;2.900;2022-09-09T16:17:38;100116.94;;;18.85;69.98
60852;BME280;48553;50.766;2.900;2022-09-09T16:20:39;100117.34;;;18.83;69.75
60852;BME280;48553;50.766;2.900;2022-09-09T16:23:40;100109.81;;;18.80;69.92
60852;BME280;48553;50.766;2.900;2022-09-09T16:26:43;100120.94;;;18.76;70.16
60852;BME280;48553;50.766;2.900;2022-09-09T16:29:46;100115.00;;;18.74;69.91
60852;BME280;48553;50.766;2.900;2022-09-09T16:32:46;100116.63;;;18.72;70.15
60852;BME280;48553;50.766;2.900;2022-09-09T16:35:48;100116.19;;;18.73;70.08
60852;BME280;48553;50.766;2.900;2022-09-09T16:38:53;100119.41;;;18.68;70.24
60852;BME280;48553;50.766;2.900;2022-09-09T16:41:55;100116.22;;;18.70;70.08
60852;BME280;48553;50.766;2.900;2022-09-09T16:44:55;100129.72;;;18.68;70.34
60852;BME280;48553;50.766;2.900;2022-09-09T16:47:56;100123.78;;;18.66;70.72
60852;BME280;48553;50.766;2.900;2022-09-09T16:51:08;100118.63;;;18.64;70.47
60852;BME280;48553;50.766;2.900;2022-09-09T16:54:11;100120.63;;;18.64;70.38
60852;BME280;48553;50.766;2.900;2022-09-09T16:57:12;100129.78;;;18.61;70.29
60852;BME280;48553;50.766;2.900;2022-09-09T17:00:12;100125.81;;;18.58;70.13
60852;BME280;48553;50.766;2.900;2022-09-09T17:03:13;100136.94;;;18.58;69.73
60852;BME280;48553;50.766;2.900;2022-09-09T17:06:14;100142.09;;;18.56;69.52
60852;BME280;48553;50.766;2.900;2022-09-09T17:09:15;100145.66;;;18.53;69.08
60852;BME280;48553;50.766;2.900;2022-09-09T17:12:16;100139.31;;;18.52;69.17
60852;BME280;48553;50.766;2.900;2022-09-09T17:15:17;100144.09;;;18.52;69.14
60852;BME280;48553;50.766;2.900;2022-09-09T17:18:18;100141.72;;;18.50;68.94
60852;BME280;48553;50.766;2.900;2022-09-09T17:21:20;100141.75;;;18.47;69.01
60852;BME280;48553;50.766;2.900;2022-09-09T17:24:21;100142.91;;;18.46;68.96
60852;BME280;48553;50.766;2.900;2022-09-09T17:27:21;100154.84;;;18.43;68.79
60852;BME280;48553;50.766;2.900;2022-09-09T17:30:22;100159.22;;;18.40;69.11
60852;BME280;48553;50.766;2.900;2022-09-09T17:33:23;100161.59;;;18.38;69.20
60852;BME280;48553;50.766;2.900;2022-09-09T17:36:29;100163.16;;;18.39;69.01
60852;BME280;48553;50.766;2.900;2022-09-09T17:39:30;100166.38;;;18.38;69.14
60852;BME280;48553;50.766;2.900;2022-09-09T17:42:30;100167.16;;;18.34;69.25
60852;BME280;48553;50.766;2.900;2022-09-09T17:45:31;100168.38;;;18.33;69.38
60852;BME280;48553;50.766;2.900;2022-09-09T17:48:31;100169.19;;;18.30;69.75